sensor_id;sensor_type;location;lat;lon;timestamp;P1;durP1;ratioP1;P2;durP2;ratioP2
68993;SDS011;56054;50.968;5.816;2023-05-20T00:01:19;3.75;;;1.23;;
68993;SDS011;56054;50.968;5.816;2023-05-20T00:04:19;5.88;;;2.33;;
68993;SDS011;56054;50.968;5.816;2023-05-20T00:07:19;5.35;;;1.80;;
68993;SDS011;56054;50.968;5.816;2023-05-20T00:10:20;5.38;;;1.80;;
68993;SDS011;56054;50.968;5.816;2023-05-20T00:13:20;5.03;;;1.60;;
68993;SDS011;56054;50.968;5.816;2023-05-20T00:16:20;4.70;;;1.83;;
68993;SDS011;56054;50.968;5.816;2023-05-20T00:19:21;4.43;;;1.92;;
68993;SDS011;56054;50.968;5.816;2023-05-20T00:22:21;5.53;;;1.92;;
68993;SDS011;56054;50.968;5.816;2023-05-20T00:25:22;4.85;;;1.88;;
68993;SDS011;56054;50.968;5.816;2023-05-20T00:28:22;3.92;;;1.85;;
68993;SDS011;56054;50.968;5.816;2023-05-20T00:31:23;4.35;;;1.75;;
68993;SDS011;56054;50.968;5.816;2023-05-20T00:34:23;7.40;;;1.67;;
68993;SDS011;56054;50.968;5.816;2023-05-20T00:37:24;4.38;;;1.67;;
68993;SDS011;56054;50.968;5.816;2023-05-20T00:40:24;5.70;;;2.08;;
68993;SDS011;56054;50.968;5.816;2023-05-20T00:43:25;6.25;;;2.35;;
68993;SDS011;56054;50.968;5.816;2023-05-20T00:46:25;8.57;;;2.35;;
68993;SDS011;56054;50.968;5.816;2023-05-20T00:49:27;9.43;;;2.10;;
68993;SDS011;56054;50.968;5.816;2023-05-20T00:52:28;3.65;;;1.88;;
68993;SDS011;56054;50.968;5.816;2023-05-20T00:55:31;6.82;;;2.22;;
68993;SDS011;56054;50.968;5.816;2023-05-20T00:58:31;3.67;;;1.70;;
68993;SDS011;56054;50.968;5.816;2023-05-20T01:01:32;6.03;;;2.15;;
68993;SDS011;56054;50.968;5.816;2023-05-20T01:04:32;14.35;;;2.25;;
68993;SDS011;56054;50.968;5.816;2023-05-20T01:07:33;6.88;;;2.10;;
68993;SDS011;56054;50.968;5.816;2023-05-20T01:10:34;6.20;;;2.15;;
68993;SDS011;56054;50.968;5.816;2023-05-20T01:13:41;3.20;;;1.92;;
68993;SDS011;56054;50.968;5.816;2023-05-20T01:27:55;5.72;;;2.03;;
68993;SDS011;56054;50.968;5.816;2023-05-20T01:30:57;4.30;;;1.92;;
68993;SDS011;56054;50.968;5.816;2023-05-20T01:34:00;2.88;;;1.63;;
68993;SDS011;56054;50.968;5.816;2023-05-20T01:37:03;7.57;;;2.00;;
68993;SDS011;56054;50.968;5.816;2023-05-20T01:40:05;6.22;;;1.92;;
68993;SDS011;56054;50.968;5.816;2023-05-20T01:43:07;7.45;;;3.00;;
68993;SDS011;56054;50.968;5.816;2023-05-20T01:46:09;10.25;;;1.90;;
68993;SDS011;56054;50.968;5.816;2023-05-20T01:49:09;5.68;;;2.00;;
68993;SDS011;56054;50.968;5.816;2023-05-20T01:52:10;6.40;;;2.10;;
68993;SDS011;56054;50.968;5.816;2023-05-20T01:55:10;2.72;;;1.63;;
68993;SDS011;56054;50.968;5.816;2023-05-20T01:58:11;8.43;;;2.40;;
68993;SDS011;56054;50.968;5.816;2023-05-20T02:01:11;7.43;;;1.67;;
68993;SDS011;56054;50.968;5.816;2023-05-20T02:04:11;4.25;;;1.90;;
68993;SDS011;56054;50.968;5.816;2023-05-20T02:07:12;3.27;;;1.77;;
68993;SDS011;56054;50.968;5.816;2023-05-20T02:10:13;4.97;;;2.30;;
68993;SDS011;56054;50.968;5.816;2023-05-20T02:13:14;4.20;;;1.60;;
68993;SDS011;56054;50.968;5.816;2023-05-20T02:16:14;3.90;;;2.00;;
68993;SDS011;56054;50.968;5.816;2023-05-20T02:19:15;3.07;;;1.60;;
68993;SDS011;56054;50.968;5.816;2023-05-20T02:22:15;4.23;;;1.80;;
68993;SDS011;56054;50.968;5.816;2023-05-20T02:25:17;9.07;;;2.30;;
68993;SDS011;56054;50.968;5.816;2023-05-20T02:28:17;3.43;;;1.87;;
68993;SDS011;56054;50.968;5.816;2023-05-20T02:31:24;7.07;;;1.97;;
68993;SDS011;56054;50.968;5.816;2023-05-20T02:34:25;2.73;;;1.67;;
68993;SDS011;56054;50.968;5.816;2023-05-20T02:37:26;3.47;;;1.93;;
68993;SDS011;56054;50.968;5.816;2023-05-20T02:40:27;4.40;;;1.73;;
68993;SDS011;56054;50.968;5.816;2023-05-20T02:43:27;11.93;;;1.80;;
68993;SDS011;56054;50.968;5.816;2023-05-20T02:46:28;3.90;;;2.17;;
68993;SDS011;56054;50.968;5.816;2023-05-20T02:49:28;5.37;;;1.80;;
68993;SDS011;56054;50.968;5.816;2023-05-20T02:52:29;4.93;;;1.93;;
68993;SDS011;56054;50.968;5.816;2023-05-20T02:55:29;5.23;;;2.00;;
68993;SDS011;56054;50.968;5.816;2023-05-20T02:58:33;4.60;;;2.27;;
68993;SDS011;56054;50.968;5.816;2023-05-20T03:01:34;5.87;;;1.80;;
68993;SDS011;56054;50.968;5.816;2023-05-20T03:04:37;6.37;;;2.00;;
68993;SDS011;56054;50.968;5.816;2023-05-20T03:07:37;3.80;;;1.70;;
68993;SDS011;56054;50.968;5.816;2023-05-20T03:10:40;8.03;;;2.40;;
68993;SDS011;56054;50.968;5.816;2023-05-20T03:13:41;4.47;;;2.00;;
68993;SDS011;56054;50.968;5.816;2023-05-20T03:16:41;9.80;;;2.90;;
68993;SDS011;56054;50.968;5.816;2023-05-20T03:19:42;7.57;;;2.23;;
68993;SDS011;56054;50.968;5.816;2023-05-20T03:26:10;4.03;;;2.03;;
68993;SDS011;56054;50.968;5.816;2023-05-20T03:29:10;3.40;;;1.90;;
68993;SDS011;56054;50.968;5.816;2023-05-20T03:32:11;5.27;;;2.27;;
68993;SDS011;56054;50.968;5.816;2023-05-20T03:35:13;4.23;;;2.07;;
68993;SDS011;56054;50.968;5.816;2023-05-20T03:38:13;8.70;;;2.43;;
68993;SDS011;56054;50.968;5.816;2023-05-20T03:41:14;6.57;;;1.87;;
68993;SDS011;56054;50.968;5.816;2023-05-20T03:44:14;4.03;;;2.13;;
68993;SDS011;56054;50.968;5.816;2023-05-20T03:47:15;4.27;;;2.20;;
68993;SDS011;56054;50.968;5.816;2023-05-20T03:50:23;5.07;;;2.10;;
68993;SDS011;56054;50.968;5.816;2023-05-20T03:53:24;4.93;;;2.10;;
68993;SDS011;56054;50.968;5.816;2023-05-20T03:56:25;9.23;;;2.60;;
68993;SDS011;56054;50.968;5.816;2023-05-20T03:59:26;5.60;;;2.00;;
68993;SDS011;56054;50.968;5.816;2023-05-20T04:02:26;4.37;;;2.33;;
68993;SDS011;56054;50.968;5.816;2023-05-20T04:05:27;5.80;;;1.93;;
68993;SDS011;56054;50.968;5.816;2023-05-20T04:08:28;6.97;;;2.03;;
68993;SDS011;56054;50.968;5.816;2023-05-20T04:11:30;8.23;;;2.43;;
68993;SDS011;56054;50.968;5.816;2023-05-20T04:14:31;9.73;;;2.50;;
68993;SDS011;56054;50.968;5.816;2023-05-20T04:17:32;7.70;;;2.60;;
68993;SDS011;56054;50.968;5.816;2023-05-20T04:20:33;4.07;;;1.90;;
68993;SDS011;56054;50.968;5.816;2023-05-20T04:23:34;7.27;;;2.33;;
68993;SDS011;56054;50.968;5.816;2023-05-20T04:26:34;6.00;;;2.57;;
68993;SDS011;56054;50.968;5.816;2023-05-20T04:29:34;5.93;;;2.07;;
68993;SDS011;56054;50.968;5.816;2023-05-20T04:32:35;8.50;;;2.43;;
68993;SDS011;56054;50.968;5.816;2023-05-20T04:35:35;4.87;;;2.30;;
68993;SDS011;56054;50.968;5.816;2023-05-20T04:38:38;6.70;;;2.60;;
68993;SDS011;56054;50.968;5.816;2023-05-20T04:41:39;8.83;;;2.70;;
68993;SDS011;56054;50.968;5.816;2023-05-20T04:44:39;5.17;;;2.23;;
68993;SDS011;56054;50.968;5.816;2023-05-20T04:47:40;9.80;;;2.47;;
68993;SDS011;56054;50.968;5.816;2023-05-20T04:50:41;6.07;;;2.70;;
68993;SDS011;56054;50.968;5.816;2023-05-20T04:53:41;3.97;;;2.27;;
68993;SDS011;56054;50.968;5.816;2023-05-20T04:56:42;7.53;;;2.67;;
68993;SDS011;56054;50.968;5.816;2023-05-20T04:59:43;7.00;;;2.90;;
68993;SDS011;56054;50.968;5.816;2023-05-20T05:02:44;9.93;;;2.63;;
68993;SDS011;56054;50.968;5.816;2023-05-20T05:05:44;3.53;;;2.43;;
68993;SDS011;56054;50.968;5.816;2023-05-20T05:08:45;7.90;;;2.80;;
68993;SDS011;56054;50.968;5.816;2023-05-20T05:11:48;4.10;;;2.30;;
68993;SDS011;56054;50.968;5.816;2023-05-20T05:14:48;5.93;;;2.87;;
68993;SDS011;56054;50.968;5.816;2023-05-20T05:17:49;11.93;;;2.90;;
68993;SDS011;56054;50.968;5.816;2023-05-20T05:20:57;8.40;;;3.20;;
68993;SDS011;56054;50.968;5.816;2023-05-20T05:24:05;13.60;;;2.73;;
68993;SDS011;56054;50.968;5.816;2023-05-20T05:27:07;8.87;;;2.60;;
68993;SDS011;56054;50.968;5.816;2023-05-20T05:30:10;10.13;;;3.20;;
68993;SDS011;56054;50.968;5.816;2023-05-20T05:33:10;6.63;;;3.10;;
68993;SDS011;56054;50.968;5.816;2023-05-20T05:36:14;7.73;;;2.73;;
68993;SDS011;56054;50.968;5.816;2023-05-20T05:39:15;6.37;;;2.87;;
68993;SDS011;56054;50.968;5.816;2023-05-20T05:42:16;7.77;;;3.00;;
68993;SDS011;56054;50.968;5.816;2023-05-20T05:45:16;9.97;;;3.30;;
68993;SDS011;56054;50.968;5.816;2023-05-20T05:48:17;6.73;;;2.90;;
68993;SDS011;56054;50.968;5.816;2023-05-20T05:51:17;5.80;;;2.77;;
68993;SDS011;56054;50.968;5.816;2023-05-20T05:54:18;7.47;;;2.47;;
68993;SDS011;56054;50.968;5.816;2023-05-20T05:57:25;5.10;;;2.93;;
68993;SDS011;56054;50.968;5.816;2023-05-20T06:00:26;5.47;;;3.07;;
68993;SDS011;56054;50.968;5.816;2023-05-20T06:03:28;6.23;;;3.33;;
68993;SDS011;56054;50.968;5.816;2023-05-20T06:06:28;6.20;;;3.17;;
68993;SDS011;56054;50.968;5.816;2023-05-20T06:09:29;7.93;;;2.93;;
68993;SDS011;56054;50.968;5.816;2023-05-20T06:12:29;10.70;;;3.30;;
68993;SDS011;56054;50.968;5.816;2023-05-20T06:15:30;5.70;;;2.70;;
68993;SDS011;56054;50.968;5.816;2023-05-20T06:18:31;4.80;;;2.57;;
68993;SDS011;56054;50.968;5.816;2023-05-20T06:21:35;8.23;;;3.07;;
68993;SDS011;56054;50.968;5.816;2023-05-20T06:24:42;4.57;;;2.73;;
68993;SDS011;56054;50.968;5.816;2023-05-20T06:27:42;5.78;;;2.40;;
68993;SDS011;56054;50.968;5.816;2023-05-20T06:30:48;7.40;;;2.78;;
68993;SDS011;56054;50.968;5.816;2023-05-20T06:33:49;5.57;;;2.65;;
68993;SDS011;56054;50.968;5.816;2023-05-20T06:36:49;6.30;;;2.63;;
68993;SDS011;56054;50.968;5.816;2023-05-20T06:39:50;4.95;;;2.58;;
68993;SDS011;56054;50.968;5.816;2023-05-20T06:42:51;6.32;;;2.50;;
68993;SDS011;56054;50.968;5.816;2023-05-20T06:45:58;6.60;;;2.58;;
68993;SDS011;56054;50.968;5.816;2023-05-20T06:49:15;6.38;;;2.53;;
68993;SDS011;56054;50.968;5.816;2023-05-20T06:52:18;9.23;;;2.88;;
68993;SDS011;56054;50.968;5.816;2023-05-20T06:55:19;11.13;;;2.88;;
68993;SDS011;56054;50.968;5.816;2023-05-20T06:58:20;4.60;;;2.70;;
68993;SDS011;56054;50.968;5.816;2023-05-20T07:01:22;8.23;;;2.78;;
68993;SDS011;56054;50.968;5.816;2023-05-20T07:04:23;6.22;;;2.40;;
68993;SDS011;56054;50.968;5.816;2023-05-20T07:07:31;7.03;;;2.13;;
68993;SDS011;56054;50.968;5.816;2023-05-20T07:10:32;5.13;;;2.60;;
68993;SDS011;56054;50.968;5.816;2023-05-20T07:13:32;7.93;;;3.05;;
68993;SDS011;56054;50.968;5.816;2023-05-20T07:16:33;4.93;;;2.22;;
68993;SDS011;56054;50.968;5.816;2023-05-20T07:19:33;6.30;;;2.95;;
68993;SDS011;56054;50.968;5.816;2023-05-20T07:22:34;6.15;;;2.55;;
68993;SDS011;56054;50.968;5.816;2023-05-20T07:25:55;7.35;;;2.60;;
68993;SDS011;56054;50.968;5.816;2023-05-20T07:28:55;6.45;;;2.75;;
68993;SDS011;56054;50.968;5.816;2023-05-20T07:31:58;6.63;;;2.55;;
68993;SDS011;56054;50.968;5.816;2023-05-20T07:35:07;6.95;;;2.83;;
68993;SDS011;56054;50.968;5.816;2023-05-20T07:38:16;6.60;;;2.58;;
68993;SDS011;56054;50.968;5.816;2023-05-20T07:41:19;8.43;;;2.28;;
68993;SDS011;56054;50.968;5.816;2023-05-20T07:44:19;13.20;;;2.72;;
68993;SDS011;56054;50.968;5.816;2023-05-20T07:47:24;5.38;;;2.70;;
68993;SDS011;56054;50.968;5.816;2023-05-20T07:50:24;6.97;;;2.70;;
68993;SDS011;56054;50.968;5.816;2023-05-20T07:53:25;5.55;;;2.75;;
68993;SDS011;56054;50.968;5.816;2023-05-20T07:56:26;5.57;;;2.45;;
68993;SDS011;56054;50.968;5.816;2023-05-20T07:59:27;5.43;;;2.67;;
68993;SDS011;56054;50.968;5.816;2023-05-20T08:02:27;4.28;;;2.35;;
68993;SDS011;56054;50.968;5.816;2023-05-20T08:05:28;4.88;;;2.53;;
68993;SDS011;56054;50.968;5.816;2023-05-20T08:08:28;7.63;;;2.45;;
68993;SDS011;56054;50.968;5.816;2023-05-20T08:11:35;5.75;;;3.13;;
68993;SDS011;56054;50.968;5.816;2023-05-20T08:14:36;5.72;;;2.47;;
68993;SDS011;56054;50.968;5.816;2023-05-20T08:17:37;5.78;;;2.42;;
68993;SDS011;56054;50.968;5.816;2023-05-20T08:20:38;8.40;;;2.75;;
68993;SDS011;56054;50.968;5.816;2023-05-20T08:23:38;4.65;;;1.80;;
68993;SDS011;56054;50.968;5.816;2023-05-20T08:26:39;8.15;;;2.55;;
68993;SDS011;56054;50.968;5.816;2023-05-20T08:29:43;6.50;;;2.55;;
68993;SDS011;56054;50.968;5.816;2023-05-20T08:32:44;6.63;;;2.63;;
68993;SDS011;56054;50.968;5.816;2023-05-20T08:35:45;4.70;;;2.50;;
68993;SDS011;56054;50.968;5.816;2023-05-20T08:38:45;6.93;;;2.72;;
68993;SDS011;56054;50.968;5.816;2023-05-20T08:41:46;4.32;;;2.20;;
68993;SDS011;56054;50.968;5.816;2023-05-20T08:44:47;6.00;;;2.53;;
68993;SDS011;56054;50.968;5.816;2023-05-20T08:57:43;4.38;;;2.38;;
68993;SDS011;56054;50.968;5.816;2023-05-20T09:00:44;4.30;;;2.45;;
68993;SDS011;56054;50.968;5.816;2023-05-20T09:03:44;5.00;;;3.03;;
68993;SDS011;56054;50.968;5.816;2023-05-20T09:06:45;9.88;;;2.83;;
68993;SDS011;56054;50.968;5.816;2023-05-20T09:09:46;3.95;;;2.40;;
68993;SDS011;56054;50.968;5.816;2023-05-20T09:12:46;7.07;;;2.47;;
68993;SDS011;56054;50.968;5.816;2023-05-20T09:15:46;4.80;;;2.72;;
68993;SDS011;56054;50.968;5.816;2023-05-20T09:18:49;3.75;;;2.42;;
68993;SDS011;56054;50.968;5.816;2023-05-20T09:21:51;5.60;;;2.60;;
68993;SDS011;56054;50.968;5.816;2023-05-20T09:24:52;4.38;;;2.50;;
68993;SDS011;56054;50.968;5.816;2023-05-20T09:27:53;4.57;;;2.47;;
68993;SDS011;56054;50.968;5.816;2023-05-20T09:30:57;5.43;;;2.88;;
68993;SDS011;56054;50.968;5.816;2023-05-20T09:34:01;3.95;;;2.60;;
68993;SDS011;56054;50.968;5.816;2023-05-20T09:37:02;5.32;;;2.28;;
68993;SDS011;56054;50.968;5.816;2023-05-20T09:40:06;5.68;;;2.70;;
68993;SDS011;56054;50.968;5.816;2023-05-20T09:43:07;5.15;;;2.45;;
68993;SDS011;56054;50.968;5.816;2023-05-20T09:46:08;6.50;;;2.47;;
68993;SDS011;56054;50.968;5.816;2023-05-20T09:49:09;6.20;;;2.85;;
68993;SDS011;56054;50.968;5.816;2023-05-20T09:52:11;7.90;;;3.28;;
68993;SDS011;56054;50.968;5.816;2023-05-20T09:55:11;6.32;;;2.78;;
68993;SDS011;56054;50.968;5.816;2023-05-20T09:58:12;6.75;;;2.80;;
68993;SDS011;56054;50.968;5.816;2023-05-20T10:01:14;5.22;;;2.85;;
68993;SDS011;56054;50.968;5.816;2023-05-20T10:04:15;8.82;;;2.83;;
68993;SDS011;56054;50.968;5.816;2023-05-20T10:21:13;5.85;;;2.65;;
68993;SDS011;56054;50.968;5.816;2023-05-20T10:24:15;7.43;;;3.25;;
68993;SDS011;56054;50.968;5.816;2023-05-20T10:27:16;4.55;;;3.00;;
68993;SDS011;56054;50.968;5.816;2023-05-20T10:33:18;4.20;;;2.75;;
68993;SDS011;56054;50.968;5.816;2023-05-20T10:36:25;5.93;;;2.70;;
68993;SDS011;56054;50.968;5.816;2023-05-20T10:39:29;7.30;;;3.28;;
68993;SDS011;56054;50.968;5.816;2023-05-20T10:42:31;6.05;;;2.97;;
68993;SDS011;56054;50.968;5.816;2023-05-20T10:45:31;6.78;;;3.33;;
68993;SDS011;56054;50.968;5.816;2023-05-20T11:02:09;5.18;;;2.70;;
68993;SDS011;56054;50.968;5.816;2023-05-20T11:05:10;5.35;;;3.50;;
68993;SDS011;56054;50.968;5.816;2023-05-20T11:08:10;8.68;;;4.35;;
68993;SDS011;56054;50.968;5.816;2023-05-20T11:11:12;6.05;;;3.58;;
68993;SDS011;56054;50.968;5.816;2023-05-20T11:14:13;7.75;;;2.92;;
68993;SDS011;56054;50.968;5.816;2023-05-20T11:17:14;4.57;;;3.05;;
68993;SDS011;56054;50.968;5.816;2023-05-20T11:20:16;8.38;;;3.28;;
68993;SDS011;56054;50.968;5.816;2023-05-20T11:23:22;9.85;;;3.60;;
68993;SDS011;56054;50.968;5.816;2023-05-20T11:26:23;4.65;;;2.97;;
68993;SDS011;56054;50.968;5.816;2023-05-20T11:29:24;7.53;;;3.20;;
68993;SDS011;56054;50.968;5.816;2023-05-20T11:32:26;7.28;;;4.03;;
68993;SDS011;56054;50.968;5.816;2023-05-20T11:35:26;7.45;;;3.30;;
68993;SDS011;56054;50.968;5.816;2023-05-20T11:38:28;7.90;;;3.45;;
68993;SDS011;56054;50.968;5.816;2023-05-20T11:41:29;8.30;;;4.20;;
68993;SDS011;56054;50.968;5.816;2023-05-20T11:44:29;9.27;;;3.53;;
68993;SDS011;56054;50.968;5.816;2023-05-20T11:47:30;6.43;;;3.63;;
68993;SDS011;56054;50.968;5.816;2023-05-20T11:50:35;7.78;;;4.55;;
68993;SDS011;56054;50.968;5.816;2023-05-20T11:53:36;6.63;;;3.20;;
68993;SDS011;56054;50.968;5.816;2023-05-20T11:56:39;7.65;;;3.28;;
68993;SDS011;56054;50.968;5.816;2023-05-20T11:59:40;7.15;;;3.45;;
68993;SDS011;56054;50.968;5.816;2023-05-20T12:02:40;7.18;;;4.13;;
68993;SDS011;56054;50.968;5.816;2023-05-20T12:05:42;10.02;;;3.83;;
68993;SDS011;56054;50.968;5.816;2023-05-20T12:08:42;5.15;;;3.60;;
68993;SDS011;56054;50.968;5.816;2023-05-20T12:11:44;10.32;;;4.05;;
68993;SDS011;56054;50.968;5.816;2023-05-20T12:14:44;5.57;;;4.00;;
68993;SDS011;56054;50.968;5.816;2023-05-20T12:17:47;7.88;;;4.00;;
68993;SDS011;56054;50.968;5.816;2023-05-20T12:20:48;7.55;;;4.15;;
68993;SDS011;56054;50.968;5.816;2023-05-20T12:23:49;6.63;;;3.95;;
68993;SDS011;56054;50.968;5.816;2023-05-20T12:26:49;5.70;;;3.22;;
68993;SDS011;56054;50.968;5.816;2023-05-20T12:29:50;5.90;;;3.33;;
68993;SDS011;56054;50.968;5.816;2023-05-20T12:32:50;8.77;;;4.10;;
68993;SDS011;56054;50.968;5.816;2023-05-20T12:35:51;6.70;;;3.85;;
68993;SDS011;56054;50.968;5.816;2023-05-20T12:38:51;9.07;;;3.97;;
68993;SDS011;56054;50.968;5.816;2023-05-20T12:41:51;9.68;;;4.60;;
68993;SDS011;56054;50.968;5.816;2023-05-20T12:44:54;6.80;;;4.18;;
68993;SDS011;56054;50.968;5.816;2023-05-20T12:47:55;6.13;;;3.60;;
68993;SDS011;56054;50.968;5.816;2023-05-20T12:50:56;7.30;;;3.80;;
68993;SDS011;56054;50.968;5.816;2023-05-20T12:53:56;7.32;;;3.72;;
68993;SDS011;56054;50.968;5.816;2023-05-20T12:56:57;5.72;;;3.78;;
68993;SDS011;56054;50.968;5.816;2023-05-20T12:59:57;11.30;;;3.88;;
68993;SDS011;56054;50.968;5.816;2023-05-20T13:02:58;7.22;;;3.42;;
68993;SDS011;56054;50.968;5.816;2023-05-20T13:05:59;12.20;;;3.58;;
68993;SDS011;56054;50.968;5.816;2023-05-20T13:08:59;6.65;;;3.97;;
68993;SDS011;56054;50.968;5.816;2023-05-20T13:12:00;8.27;;;4.05;;
68993;SDS011;56054;50.968;5.816;2023-05-20T13:15:01;6.32;;;3.78;;
68993;SDS011;56054;50.968;5.816;2023-05-20T13:18:04;6.45;;;3.90;;
68993;SDS011;56054;50.968;5.816;2023-05-20T13:21:04;5.15;;;4.03;;
68993;SDS011;56054;50.968;5.816;2023-05-20T13:24:06;6.88;;;4.38;;
68993;SDS011;56054;50.968;5.816;2023-05-20T13:27:06;7.30;;;3.78;;
68993;SDS011;56054;50.968;5.816;2023-05-20T13:30:07;10.48;;;4.90;;
68993;SDS011;56054;50.968;5.816;2023-05-20T13:33:09;8.63;;;4.43;;
68993;SDS011;56054;50.968;5.816;2023-05-20T13:36:09;12.25;;;5.07;;
68993;SDS011;56054;50.968;5.816;2023-05-20T13:39:11;6.63;;;4.53;;
68993;SDS011;56054;50.968;5.816;2023-05-20T13:42:11;6.65;;;4.22;;
68993;SDS011;56054;50.968;5.816;2023-05-20T13:45:11;7.78;;;4.15;;
68993;SDS011;56054;50.968;5.816;2023-05-20T13:48:12;5.93;;;4.05;;
68993;SDS011;56054;50.968;5.816;2023-05-20T13:51:12;5.43;;;3.70;;
68993;SDS011;56054;50.968;5.816;2023-05-20T13:54:13;6.25;;;4.53;;
68993;SDS011;56054;50.968;5.816;2023-05-20T13:57:14;9.25;;;4.25;;
68993;SDS011;56054;50.968;5.816;2023-05-20T14:00:14;6.45;;;3.60;;
68993;SDS011;56054;50.968;5.816;2023-05-20T14:03:15;6.30;;;4.10;;
68993;SDS011;56054;50.968;5.816;2023-05-20T14:06:16;7.30;;;4.03;;
68993;SDS011;56054;50.968;5.816;2023-05-20T14:09:16;9.43;;;4.60;;
68993;SDS011;56054;50.968;5.816;2023-05-20T14:12:16;6.75;;;4.47;;
68993;SDS011;56054;50.968;5.816;2023-05-20T14:15:17;9.95;;;5.35;;
68993;SDS011;56054;50.968;5.816;2023-05-20T14:18:18;9.70;;;5.03;;
68993;SDS011;56054;50.968;5.816;2023-05-20T14:21:18;7.22;;;4.63;;
68993;SDS011;56054;50.968;5.816;2023-05-20T14:24:19;9.05;;;4.03;;
68993;SDS011;56054;50.968;5.816;2023-05-20T14:27:19;6.00;;;4.50;;
68993;SDS011;56054;50.968;5.816;2023-05-20T14:30:20;6.80;;;3.70;;
68993;SDS011;56054;50.968;5.816;2023-05-20T14:33:20;8.27;;;3.72;;
68993;SDS011;56054;50.968;5.816;2023-05-20T14:36:21;10.15;;;4.15;;
68993;SDS011;56054;50.968;5.816;2023-05-20T14:39:21;6.43;;;4.07;;
68993;SDS011;56054;50.968;5.816;2023-05-20T14:42:22;5.88;;;3.97;;
68993;SDS011;56054;50.968;5.816;2023-05-20T14:45:22;7.30;;;3.85;;
68993;SDS011;56054;50.968;5.816;2023-05-20T14:48:22;11.85;;;5.03;;
68993;SDS011;56054;50.968;5.816;2023-05-20T14:51:23;8.88;;;4.05;;
68993;SDS011;56054;50.968;5.816;2023-05-20T14:54:23;11.82;;;5.10;;
68993;SDS011;56054;50.968;5.816;2023-05-20T14:57:24;6.53;;;4.53;;
68993;SDS011;56054;50.968;5.816;2023-05-20T15:00:24;5.85;;;4.00;;
68993;SDS011;56054;50.968;5.816;2023-05-20T15:03:25;8.68;;;4.07;;
68993;SDS011;56054;50.968;5.816;2023-05-20T15:06:25;8.38;;;4.70;;
68993;SDS011;56054;50.968;5.816;2023-05-20T15:09:26;6.30;;;4.05;;
68993;SDS011;56054;50.968;5.816;2023-05-20T15:12:28;14.10;;;7.85;;
68993;SDS011;56054;50.968;5.816;2023-05-20T15:15:29;8.45;;;4.60;;
68993;SDS011;56054;50.968;5.816;2023-05-20T15:18:30;15.23;;;8.15;;
68993;SDS011;56054;50.968;5.816;2023-05-20T15:21:31;7.70;;;4.93;;
68993;SDS011;56054;50.968;5.816;2023-05-20T15:24:31;11.70;;;4.75;;
68993;SDS011;56054;50.968;5.816;2023-05-20T15:27:32;6.88;;;4.15;;
68993;SDS011;56054;50.968;5.816;2023-05-20T15:30:32;5.38;;;3.72;;
68993;SDS011;56054;50.968;5.816;2023-05-20T15:33:41;9.48;;;4.25;;
68993;SDS011;56054;50.968;5.816;2023-05-20T15:36:41;7.85;;;4.43;;
68993;SDS011;56054;50.968;5.816;2023-05-20T15:39:42;11.43;;;6.43;;
68993;SDS011;56054;50.968;5.816;2023-05-20T15:42:42;10.05;;;5.57;;
68993;SDS011;56054;50.968;5.816;2023-05-20T15:45:43;13.48;;;5.60;;
68993;SDS011;56054;50.968;5.816;2023-05-20T15:48:44;11.95;;;5.32;;
68993;SDS011;56054;50.968;5.816;2023-05-20T15:51:44;6.55;;;4.20;;
68993;SDS011;56054;50.968;5.816;2023-05-20T15:54:45;9.52;;;4.82;;
68993;SDS011;56054;50.968;5.816;2023-05-20T15:57:45;8.20;;;4.43;;
68993;SDS011;56054;50.968;5.816;2023-05-20T16:00:46;7.22;;;5.13;;
68993;SDS011;56054;50.968;5.816;2023-05-20T16:03:46;8.25;;;4.90;;
68993;SDS011;56054;50.968;5.816;2023-05-20T16:06:47;9.93;;;5.95;;
68993;SDS011;56054;50.968;5.816;2023-05-20T16:09:47;5.38;;;3.85;;
68993;SDS011;56054;50.968;5.816;2023-05-20T16:12:48;6.82;;;4.20;;
68993;SDS011;56054;50.968;5.816;2023-05-20T16:15:48;6.95;;;3.53;;
68993;SDS011;56054;50.968;5.816;2023-05-20T16:18:48;5.13;;;4.05;;
68993;SDS011;56054;50.968;5.816;2023-05-20T16:21:49;6.38;;;3.10;;
68993;SDS011;56054;50.968;5.816;2023-05-20T16:31:12;7.93;;;4.30;;
68993;SDS011;56054;50.968;5.816;2023-05-20T16:34:13;6.40;;;3.10;;
68993;SDS011;56054;50.968;5.816;2023-05-20T16:37:14;5.68;;;3.22;;
68993;SDS011;56054;50.968;5.816;2023-05-20T16:40:14;7.07;;;4.28;;
68993;SDS011;56054;50.968;5.816;2023-05-20T16:43:15;7.50;;;3.80;;
68993;SDS011;56054;50.968;5.816;2023-05-20T16:46:15;4.07;;;3.20;;
68993;SDS011;56054;50.968;5.816;2023-05-20T16:49:15;5.88;;;3.10;;
68993;SDS011;56054;50.968;5.816;2023-05-20T16:52:16;4.10;;;2.60;;
68993;SDS011;56054;50.968;5.816;2023-05-20T16:55:16;4.78;;;2.95;;
68993;SDS011;56054;50.968;5.816;2023-05-20T16:58:17;4.70;;;3.28;;
68993;SDS011;56054;50.968;5.816;2023-05-20T17:01:17;5.15;;;3.55;;
68993;SDS011;56054;50.968;5.816;2023-05-20T17:04:18;5.47;;;3.30;;
68993;SDS011;56054;50.968;5.816;2023-05-20T17:07:18;5.57;;;3.63;;
68993;SDS011;56054;50.968;5.816;2023-05-20T17:10:18;6.28;;;3.70;;
68993;SDS011;56054;50.968;5.816;2023-05-20T17:13:19;7.30;;;2.90;;
68993;SDS011;56054;50.968;5.816;2023-05-20T17:16:21;6.18;;;3.40;;
68993;SDS011;56054;50.968;5.816;2023-05-20T17:19:22;5.78;;;2.97;;
68993;SDS011;56054;50.968;5.816;2023-05-20T17:22:22;6.40;;;3.25;;
68993;SDS011;56054;50.968;5.816;2023-05-20T17:25:23;7.85;;;3.30;;
68993;SDS011;56054;50.968;5.816;2023-05-20T17:28:23;5.28;;;3.28;;
68993;SDS011;56054;50.968;5.816;2023-05-20T17:31:24;5.75;;;3.20;;
68993;SDS011;56054;50.968;5.816;2023-05-20T17:34:24;11.70;;;3.25;;
68993;SDS011;56054;50.968;5.816;2023-05-20T17:37:24;5.28;;;2.80;;
68993;SDS011;56054;50.968;5.816;2023-05-20T17:40:27;5.35;;;3.15;;
68993;SDS011;56054;50.968;5.816;2023-05-20T17:43:27;5.45;;;2.47;;
68993;SDS011;56054;50.968;5.816;2023-05-20T17:46:30;7.35;;;3.13;;
68993;SDS011;56054;50.968;5.816;2023-05-20T17:49:31;3.05;;;2.33;;
68993;SDS011;56054;50.968;5.816;2023-05-20T17:52:31;4.63;;;3.15;;
68993;SDS011;56054;50.968;5.816;2023-05-20T17:55:33;4.03;;;2.97;;
68993;SDS011;56054;50.968;5.816;2023-05-20T17:58:36;6.82;;;3.42;;
68993;SDS011;56054;50.968;5.816;2023-05-20T18:01:36;4.93;;;3.15;;
68993;SDS011;56054;50.968;5.816;2023-05-20T18:04:36;3.88;;;3.03;;
68993;SDS011;56054;50.968;5.816;2023-05-20T18:07:37;5.97;;;3.20;;
68993;SDS011;56054;50.968;5.816;2023-05-20T18:10:37;5.50;;;3.40;;
68993;SDS011;56054;50.968;5.816;2023-05-20T18:13:44;7.82;;;3.42;;
68993;SDS011;56054;50.968;5.816;2023-05-20T18:16:45;5.43;;;3.17;;
68993;SDS011;56054;50.968;5.816;2023-05-20T18:19:51;4.13;;;2.90;;
68993;SDS011;56054;50.968;5.816;2023-05-20T18:22:52;7.15;;;2.78;;
68993;SDS011;56054;50.968;5.816;2023-05-20T18:25:53;5.30;;;3.22;;
68993;SDS011;56054;50.968;5.816;2023-05-20T18:28:53;7.07;;;3.28;;
68993;SDS011;56054;50.968;5.816;2023-05-20T18:31:56;4.13;;;2.90;;
68993;SDS011;56054;50.968;5.816;2023-05-20T18:35:00;5.20;;;3.40;;
68993;SDS011;56054;50.968;5.816;2023-05-20T18:48:13;6.43;;;3.60;;
68993;SDS011;56054;50.968;5.816;2023-05-20T18:51:14;8.23;;;3.72;;
68993;SDS011;56054;50.968;5.816;2023-05-20T18:54:14;7.65;;;3.17;;
68993;SDS011;56054;50.968;5.816;2023-05-20T18:57:15;5.13;;;3.22;;
68993;SDS011;56054;50.968;5.816;2023-05-20T19:00:15;5.50;;;3.40;;
68993;SDS011;56054;50.968;5.816;2023-05-20T19:03:16;7.78;;;3.67;;
68993;SDS011;56054;50.968;5.816;2023-05-20T19:06:24;6.18;;;3.60;;
68993;SDS011;56054;50.968;5.816;2023-05-20T19:09:24;8.70;;;3.40;;
68993;SDS011;56054;50.968;5.816;2023-05-20T19:12:25;4.90;;;3.35;;
68993;SDS011;56054;50.968;5.816;2023-05-20T19:15:25;5.93;;;3.47;;
68993;SDS011;56054;50.968;5.816;2023-05-20T19:18:25;9.32;;;4.00;;
68993;SDS011;56054;50.968;5.816;2023-05-20T19:21:26;5.97;;;3.78;;